sensor_id;sensor_type;location;lat;lon;timestamp;P1;durP1;ratioP1;P2;durP2;ratioP2
39078;SDS011;24829;49.208;12.080;2023-12-14T00:02:24;15.15;;;8.52;;
39078;SDS011;24829;49.208;12.080;2023-12-14T00:04:49;15.85;;;8.73;;
39078;SDS011;24829;49.208;12.080;2023-12-14T00:07:15;14.68;;;8.48;;
39078;SDS011;24829;49.208;12.080;2023-12-14T00:09:41;14.80;;;7.72;;
39078;SDS011;24829;49.208;12.080;2023-12-14T00:12:07;15.60;;;8.15;;
39078;SDS011;24829;49.208;12.080;2023-12-14T00:14:32;11.65;;;7.03;;
39078;SDS011;24829;49.208;12.080;2023-12-14T00:16:58;9.60;;;6.35;;
39078;SDS011;24829;49.208;12.080;2023-12-14T00:19:24;11.02;;;7.00;;
39078;SDS011;24829;49.208;12.080;2023-12-14T00:21:50;11.95;;;7.25;;
39078;SDS011;24829;49.208;12.080;2023-12-14T00:24:15;11.38;;;6.72;;
39078;SDS011;24829;49.208;12.080;2023-12-14T00:26:41;14.30;;;6.55;;
39078;SDS011;24829;49.208;12.080;2023-12-14T00:29:06;13.63;;;6.85;;
39078;SDS011;24829;49.208;12.080;2023-12-14T00:31:32;14.35;;;7.45;;
39078;SDS011;24829;49.208;12.080;2023-12-14T00:33:58;7.95;;;5.28;;
39078;SDS011;24829;49.208;12.080;2023-12-14T00:36:24;10.02;;;4.95;;
39078;SDS011;24829;49.208;12.080;2023-12-14T00:38:49;7.45;;;4.88;;
39078;SDS011;24829;49.208;12.080;2023-12-14T00:41:15;8.65;;;4.75;;
39078;SDS011;24829;49.208;12.080;2023-12-14T00:43:41;7.38;;;5.13;;
39078;SDS011;24829;49.208;12.080;2023-12-14T00:46:07;6.05;;;4.55;;
39078;SDS011;24829;49.208;12.080;2023-12-14T00:48:32;11.05;;;5.63;;
39078;SDS011;24829;49.208;12.080;2023-12-14T00:50:58;6.63;;;4.55;;
39078;SDS011;24829;49.208;12.080;2023-12-14T00:53:24;9.32;;;5.25;;
39078;SDS011;24829;49.208;12.080;2023-12-14T00:55:49;8.13;;;6.05;;
39078;SDS011;24829;49.208;12.080;2023-12-14T00:58:15;9.90;;;6.13;;
39078;SDS011;24829;49.208;12.080;2023-12-14T01:00:41;10.15;;;6.35;;
39078;SDS011;24829;49.208;12.080;2023-12-14T01:03:07;9.32;;;6.10;;
39078;SDS011;24829;49.208;12.080;2023-12-14T01:05:33;11.10;;;6.05;;
39078;SDS011;24829;49.208;12.080;2023-12-14T01:07:58;7.00;;;5.22;;
39078;SDS011;24829;49.208;12.080;2023-12-14T01:10:24;7.28;;;5.03;;
39078;SDS011;24829;49.208;12.080;2023-12-14T01:12:50;6.93;;;5.13;;
39078;SDS011;24829;49.208;12.080;2023-12-14T01:15:16;8.20;;;5.43;;
39078;SDS011;24829;49.208;12.080;2023-12-14T01:17:41;10.82;;;4.72;;
39078;SDS011;24829;49.208;12.080;2023-12-14T01:20:07;7.90;;;5.72;;
39078;SDS011;24829;49.208;12.080;2023-12-14T01:22:33;7.22;;;5.43;;
39078;SDS011;24829;49.208;12.080;2023-12-14T01:24:59;7.32;;;5.35;;
39078;SDS011;24829;49.208;12.080;2023-12-14T01:27:25;9.30;;;5.88;;
39078;SDS011;24829;49.208;12.080;2023-12-14T01:29:51;10.57;;;6.03;;
39078;SDS011;24829;49.208;12.080;2023-12-14T01:32:16;9.38;;;6.13;;
39078;SDS011;24829;49.208;12.080;2023-12-14T01:34:42;7.60;;;6.15;;
39078;SDS011;24829;49.208;12.080;2023-12-14T01:37:07;9.70;;;5.43;;
39078;SDS011;24829;49.208;12.080;2023-12-14T01:39:33;12.25;;;5.68;;
39078;SDS011;24829;49.208;12.080;2023-12-14T01:41:59;8.77;;;5.50;;
39078;SDS011;24829;49.208;12.080;2023-12-14T01:44:24;9.30;;;5.70;;
39078;SDS011;24829;49.208;12.080;2023-12-14T01:46:50;8.38;;;5.35;;
39078;SDS011;24829;49.208;12.080;2023-12-14T01:49:15;8.18;;;5.75;;
39078;SDS011;24829;49.208;12.080;2023-12-14T01:51:41;8.65;;;5.60;;
39078;SDS011;24829;49.208;12.080;2023-12-14T01:54:07;7.18;;;5.30;;
39078;SDS011;24829;49.208;12.080;2023-12-14T01:56:33;8.48;;;5.35;;
39078;SDS011;24829;49.208;12.080;2023-12-14T01:58:58;10.73;;;5.85;;
39078;SDS011;24829;49.208;12.080;2023-12-14T02:01:36;10.02;;;6.63;;
39078;SDS011;24829;49.208;12.080;2023-12-14T02:04:08;6.80;;;4.97;;
39078;SDS011;24829;49.208;12.080;2023-12-14T02:06:35;9.23;;;4.60;;
39078;SDS011;24829;49.208;12.080;2023-12-14T02:09:01;11.10;;;4.30;;
39078;SDS011;24829;49.208;12.080;2023-12-14T02:11:27;7.50;;;4.10;;
39078;SDS011;24829;49.208;12.080;2023-12-14T02:13:53;12.35;;;5.85;;
39078;SDS011;24829;49.208;12.080;2023-12-14T02:16:18;8.82;;;4.90;;
39078;SDS011;24829;49.208;12.080;2023-12-14T02:18:44;7.85;;;4.75;;
39078;SDS011;24829;49.208;12.080;2023-12-14T02:21:10;5.57;;;4.10;;
39078;SDS011;24829;49.208;12.080;2023-12-14T02:23:45;8.70;;;4.80;;
39078;SDS011;24829;49.208;12.080;2023-12-14T02:26:11;7.55;;;4.55;;
39078;SDS011;24829;49.208;12.080;2023-12-14T02:28:37;11.55;;;5.40;;
39078;SDS011;24829;49.208;12.080;2023-12-14T02:31:03;10.00;;;5.05;;
39078;SDS011;24829;49.208;12.080;2023-12-14T02:33:29;14.65;;;6.60;;
39078;SDS011;24829;49.208;12.080;2023-12-14T02:35:54;10.00;;;5.70;;
39078;SDS011;24829;49.208;12.080;2023-12-14T02:38:20;14.05;;;5.95;;
39078;SDS011;24829;49.208;12.080;2023-12-14T02:40:46;12.23;;;6.40;;
39078;SDS011;24829;49.208;12.080;2023-12-14T02:43:11;13.27;;;6.47;;
39078;SDS011;24829;49.208;12.080;2023-12-14T02:45:37;13.43;;;7.50;;
39078;SDS011;24829;49.208;12.080;2023-12-14T02:48:03;15.15;;;6.18;;
39078;SDS011;24829;49.208;12.080;2023-12-14T02:50:29;15.45;;;6.53;;
39078;SDS011;24829;49.208;12.080;2023-12-14T02:52:55;13.20;;;6.35;;
39078;SDS011;24829;49.208;12.080;2023-12-14T02:55:21;14.40;;;7.22;;
39078;SDS011;24829;49.208;12.080;2023-12-14T02:57:46;14.73;;;6.53;;
39078;SDS011;24829;49.208;12.080;2023-12-14T03:00:12;13.20;;;6.32;;
39078;SDS011;24829;49.208;12.080;2023-12-14T03:02:38;9.75;;;6.65;;
39078;SDS011;24829;49.208;12.080;2023-12-14T03:05:04;10.48;;;7.80;;
39078;SDS011;24829;49.208;12.080;2023-12-14T03:07:30;17.10;;;8.77;;
39078;SDS011;24829;49.208;12.080;2023-12-14T03:09:55;13.00;;;8.07;;
39078;SDS011;24829;49.208;12.080;2023-12-14T03:12:21;16.83;;;8.90;;
39078;SDS011;24829;49.208;12.080;2023-12-14T03:14:46;15.30;;;9.23;;
39078;SDS011;24829;49.208;12.080;2023-12-14T03:17:12;17.98;;;8.27;;
39078;SDS011;24829;49.208;12.080;2023-12-14T03:19:40;15.10;;;8.65;;
39078;SDS011;24829;49.208;12.080;2023-12-14T03:22:07;16.30;;;9.45;;
39078;SDS011;24829;49.208;12.080;2023-12-14T03:24:33;16.65;;;10.23;;
39078;SDS011;24829;49.208;12.080;2023-12-14T03:26:58;15.50;;;9.93;;
39078;SDS011;24829;49.208;12.080;2023-12-14T03:29:25;17.42;;;10.32;;
39078;SDS011;24829;49.208;12.080;2023-12-14T03:31:52;14.98;;;9.57;;
39078;SDS011;24829;49.208;12.080;2023-12-14T03:34:17;17.38;;;11.05;;
39078;SDS011;24829;49.208;12.080;2023-12-14T03:36:43;19.17;;;11.27;;
39078;SDS011;24829;49.208;12.080;2023-12-14T03:39:09;19.33;;;10.95;;
39078;SDS011;24829;49.208;12.080;2023-12-14T03:41:35;22.55;;;11.95;;
39078;SDS011;24829;49.208;12.080;2023-12-14T03:44:00;17.63;;;10.73;;
39078;SDS011;24829;49.208;12.080;2023-12-14T03:46:26;23.40;;;11.68;;
39078;SDS011;24829;49.208;12.080;2023-12-14T03:48:52;15.48;;;10.57;;
39078;SDS011;24829;49.208;12.080;2023-12-14T03:51:18;16.92;;;10.25;;
39078;SDS011;24829;49.208;12.080;2023-12-14T03:53:44;19.70;;;10.45;;
39078;SDS011;24829;49.208;12.080;2023-12-14T03:56:10;17.75;;;11.07;;
39078;SDS011;24829;49.208;12.080;2023-12-14T03:58:36;20.95;;;10.88;;
39078;SDS011;24829;49.208;12.080;2023-12-14T04:01:02;16.60;;;10.30;;
39078;SDS011;24829;49.208;12.080;2023-12-14T04:03:28;17.35;;;11.20;;
39078;SDS011;24829;49.208;12.080;2023-12-14T04:05:53;15.23;;;10.48;;
39078;SDS011;24829;49.208;12.080;2023-12-14T04:08:19;16.83;;;11.15;;
39078;SDS011;24829;49.208;12.080;2023-12-14T04:10:44;17.80;;;10.45;;
39078;SDS011;24829;49.208;12.080;2023-12-14T04:13:10;16.33;;;10.38;;
39078;SDS011;24829;49.208;12.080;2023-12-14T04:15:36;19.65;;;11.25;;
39078;SDS011;24829;49.208;12.080;2023-12-14T04:18:01;19.92;;;10.93;;
39078;SDS011;24829;49.208;12.080;2023-12-14T04:20:27;15.68;;;10.32;;
39078;SDS011;24829;49.208;12.080;2023-12-14T04:22:52;17.48;;;10.60;;
39078;SDS011;24829;49.208;12.080;2023-12-14T04:25:18;18.20;;;11.10;;
39078;SDS011;24829;49.208;12.080;2023-12-14T04:27:44;17.83;;;11.23;;
39078;SDS011;24829;49.208;12.080;2023-12-14T04:30:09;17.10;;;10.95;;
39078;SDS011;24829;49.208;12.080;2023-12-14T04:32:37;22.13;;;11.70;;
39078;SDS011;24829;49.208;12.080;2023-12-14T04:35:03;19.02;;;11.15;;
39078;SDS011;24829;49.208;12.080;2023-12-14T04:37:29;20.80;;;12.15;;
39078;SDS011;24829;49.208;12.080;2023-12-14T04:39:56;21.45;;;12.30;;
39078;SDS011;24829;49.208;12.080;2023-12-14T04:42:22;19.52;;;12.27;;
39078;SDS011;24829;49.208;12.080;2023-12-14T04:44:48;22.08;;;11.75;;
39078;SDS011;24829;49.208;12.080;2023-12-14T04:47:13;21.13;;;11.63;;
39078;SDS011;24829;49.208;12.080;2023-12-14T04:49:39;16.95;;;11.13;;
39078;SDS011;24829;49.208;12.080;2023-12-14T04:52:05;23.27;;;12.48;;
39078;SDS011;24829;49.208;12.080;2023-12-14T04:54:31;17.88;;;10.60;;
39078;SDS011;24829;49.208;12.080;2023-12-14T04:56:57;19.75;;;10.48;;
39078;SDS011;24829;49.208;12.080;2023-12-14T04:59:22;16.83;;;9.90;;
39078;SDS011;24829;49.208;12.080;2023-12-14T05:01:48;17.85;;;9.63;;
39078;SDS011;24829;49.208;12.080;2023-12-14T05:04:13;20.58;;;9.65;;
39078;SDS011;24829;49.208;12.080;2023-12-14T05:06:39;16.25;;;9.40;;
39078;SDS011;24829;49.208;12.080;2023-12-14T05:09:05;14.52;;;9.23;;
39078;SDS011;24829;49.208;12.080;2023-12-14T05:11:31;20.48;;;10.27;;
39078;SDS011;24829;49.208;12.080;2023-12-14T05:13:57;14.98;;;9.43;;
39078;SDS011;24829;49.208;12.080;2023-12-14T05:16:23;14.32;;;8.88;;
39078;SDS011;24829;49.208;12.080;2023-12-14T05:18:52;17.42;;;10.27;;
39078;SDS011;24829;49.208;12.080;2023-12-14T05:21:18;17.95;;;9.68;;
39078;SDS011;24829;49.208;12.080;2023-12-14T05:23:44;17.52;;;9.95;;
39078;SDS011;24829;49.208;12.080;2023-12-14T05:26:10;18.13;;;10.20;;
39078;SDS011;24829;49.208;12.080;2023-12-14T05:28:36;19.20;;;10.25;;
39078;SDS011;24829;49.208;12.080;2023-12-14T05:31:01;17.15;;;10.35;;
39078;SDS011;24829;49.208;12.080;2023-12-14T05:33:28;23.65;;;12.25;;
39078;SDS011;24829;49.208;12.080;2023-12-14T05:35:53;15.80;;;9.93;;
39078;SDS011;24829;49.208;12.080;2023-12-14T05:38:19;19.33;;;10.73;;
39078;SDS011;24829;49.208;12.080;2023-12-14T05:40:45;17.50;;;12.43;;
39078;SDS011;24829;49.208;12.080;2023-12-14T05:43:10;26.08;;;12.80;;
39078;SDS011;24829;49.208;12.080;2023-12-14T05:45:36;23.95;;;14.20;;
39078;SDS011;24829;49.208;12.080;2023-12-14T05:48:02;22.73;;;13.23;;
39078;SDS011;24829;49.208;12.080;2023-12-14T05:50:30;27.02;;;13.13;;
39078;SDS011;24829;49.208;12.080;2023-12-14T05:52:56;22.63;;;13.43;;
39078;SDS011;24829;49.208;12.080;2023-12-14T05:55:22;23.45;;;12.90;;
39078;SDS011;24829;49.208;12.080;2023-12-14T05:57:48;24.15;;;13.38;;
39078;SDS011;24829;49.208;12.080;2023-12-14T06:00:14;24.33;;;13.07;;
39078;SDS011;24829;49.208;12.080;2023-12-14T06:02:39;24.60;;;13.32;;
39078;SDS011;24829;49.208;12.080;2023-12-14T06:05:06;23.30;;;12.90;;
39078;SDS011;24829;49.208;12.080;2023-12-14T06:07:32;22.15;;;12.60;;
39078;SDS011;24829;49.208;12.080;2023-12-14T06:09:58;21.92;;;13.20;;
39078;SDS011;24829;49.208;12.080;2023-12-14T06:12:24;23.67;;;11.70;;
39078;SDS011;24829;49.208;12.080;2023-12-14T06:14:50;24.80;;;13.93;;
39078;SDS011;24829;49.208;12.080;2023-12-14T06:17:16;25.88;;;13.38;;
39078;SDS011;24829;49.208;12.080;2023-12-14T06:19:42;23.58;;;13.00;;
39078;SDS011;24829;49.208;12.080;2023-12-14T06:22:07;27.15;;;13.70;;
39078;SDS011;24829;49.208;12.080;2023-12-14T06:24:33;31.08;;;13.88;;
39078;SDS011;24829;49.208;12.080;2023-12-14T06:26:58;25.60;;;14.02;;
39078;SDS011;24829;49.208;12.080;2023-12-14T06:29:24;27.50;;;13.63;;
39078;SDS011;24829;49.208;12.080;2023-12-14T06:31:50;25.52;;;14.10;;
39078;SDS011;24829;49.208;12.080;2023-12-14T06:34:16;30.48;;;12.75;;
39078;SDS011;24829;49.208;12.080;2023-12-14T06:36:42;24.00;;;12.70;;
39078;SDS011;24829;49.208;12.080;2023-12-14T06:39:08;21.90;;;11.93;;
39078;SDS011;24829;49.208;12.080;2023-12-14T06:41:35;21.02;;;11.75;;
39078;SDS011;24829;49.208;12.080;2023-12-14T06:44:01;18.55;;;11.23;;
39078;SDS011;24829;49.208;12.080;2023-12-14T06:46:27;19.45;;;10.68;;
39078;SDS011;24829;49.208;12.080;2023-12-14T06:48:52;22.63;;;12.65;;
39078;SDS011;24829;49.208;12.080;2023-12-14T06:51:19;24.00;;;11.93;;
39078;SDS011;24829;49.208;12.080;2023-12-14T06:53:44;21.30;;;12.32;;
39078;SDS011;24829;49.208;12.080;2023-12-14T06:56:11;21.08;;;12.35;;
39078;SDS011;24829;49.208;12.080;2023-12-14T06:58:40;23.33;;;12.25;;
39078;SDS011;24829;49.208;12.080;2023-12-14T07:01:07;23.38;;;12.82;;
39078;SDS011;24829;49.208;12.080;2023-12-14T07:03:45;20.80;;;12.48;;
39078;SDS011;24829;49.208;12.080;2023-12-14T07:06:11;20.35;;;11.45;;
39078;SDS011;24829;49.208;12.080;2023-12-14T07:08:38;18.67;;;10.88;;
39078;SDS011;24829;49.208;12.080;2023-12-14T07:11:05;24.55;;;11.10;;
39078;SDS011;24829;49.208;12.080;2023-12-14T07:13:31;19.45;;;10.15;;
39078;SDS011;24829;49.208;12.080;2023-12-14T07:15:57;18.63;;;11.07;;
39078;SDS011;24829;49.208;12.080;2023-12-14T07:18:23;16.33;;;10.55;;
39078;SDS011;24829;49.208;12.080;2023-12-14T07:20:48;15.57;;;9.98;;
39078;SDS011;24829;49.208;12.080;2023-12-14T07:23:14;18.83;;;9.98;;
39078;SDS011;24829;49.208;12.080;2023-12-14T07:25:39;20.50;;;9.57;;
39078;SDS011;24829;49.208;12.080;2023-12-14T07:28:05;20.17;;;9.80;;
39078;SDS011;24829;49.208;12.080;2023-12-14T07:30:30;18.13;;;9.73;;
39078;SDS011;24829;49.208;12.080;2023-12-14T07:32:56;17.23;;;10.05;;
39078;SDS011;24829;49.208;12.080;2023-12-14T07:35:22;25.05;;;12.00;;
39078;SDS011;24829;49.208;12.080;2023-12-14T07:37:48;22.02;;;11.23;;
39078;SDS011;24829;49.208;12.080;2023-12-14T07:40:14;20.40;;;12.00;;
39078;SDS011;24829;49.208;12.080;2023-12-14T07:42:39;19.50;;;10.73;;
39078;SDS011;24829;49.208;12.080;2023-12-14T07:45:05;17.83;;;10.35;;
39078;SDS011;24829;49.208;12.080;2023-12-14T07:47:33;16.20;;;9.40;;
39078;SDS011;24829;49.208;12.080;2023-12-14T07:49:59;22.33;;;12.00;;
39078;SDS011;24829;49.208;12.080;2023-12-14T07:52:24;21.08;;;11.13;;
39078;SDS011;24829;49.208;12.080;2023-12-14T07:54:50;18.10;;;10.35;;
39078;SDS011;24829;49.208;12.080;2023-12-14T07:57:15;17.15;;;10.45;;
39078;SDS011;24829;49.208;12.080;2023-12-14T07:59:42;18.80;;;11.30;;
39078;SDS011;24829;49.208;12.080;2023-12-14T08:02:08;18.77;;;10.75;;
39078;SDS011;24829;49.208;12.080;2023-12-14T08:04:33;31.70;;;19.27;;
39078;SDS011;24829;49.208;12.080;2023-12-14T08:06:59;27.10;;;19.08;;
39078;SDS011;24829;49.208;12.080;2023-12-14T08:09:24;25.65;;;16.92;;
39078;SDS011;24829;49.208;12.080;2023-12-14T08:11:50;23.90;;;14.23;;
39078;SDS011;24829;49.208;12.080;2023-12-14T08:14:17;17.52;;;13.27;;
39078;SDS011;24829;49.208;12.080;2023-12-14T08:16:43;18.60;;;11.38;;
39078;SDS011;24829;49.208;12.080;2023-12-14T08:19:08;17.85;;;10.95;;
39078;SDS011;24829;49.208;12.080;2023-12-14T08:21:34;17.27;;;8.98;;
39078;SDS011;24829;49.208;12.080;2023-12-14T08:23:59;14.05;;;8.45;;
39078;SDS011;24829;49.208;12.080;2023-12-14T08:26:25;15.93;;;9.75;;
39078;SDS011;24829;49.208;12.080;2023-12-14T08:28:51;15.80;;;9.70;;
39078;SDS011;24829;49.208;12.080;2023-12-14T08:31:16;14.95;;;8.93;;
39078;SDS011;24829;49.208;12.080;2023-12-14T08:33:42;14.98;;;10.13;;
39078;SDS011;24829;49.208;12.080;2023-12-14T08:36:08;14.07;;;9.60;;
39078;SDS011;24829;49.208;12.080;2023-12-14T08:38:33;15.07;;;9.52;;
39078;SDS011;24829;49.208;12.080;2023-12-14T08:40:59;16.90;;;9.75;;
39078;SDS011;24829;49.208;12.080;2023-12-14T08:43:25;16.75;;;10.60;;
39078;SDS011;24829;49.208;12.080;2023-12-14T08:45:51;16.20;;;9.38;;
39078;SDS011;24829;49.208;12.080;2023-12-14T08:48:16;19.70;;;9.35;;
39078;SDS011;24829;49.208;12.080;2023-12-14T08:50:42;16.90;;;9.98;;
39078;SDS011;24829;49.208;12.080;2023-12-14T08:53:08;25.15;;;10.80;;
39078;SDS011;24829;49.208;12.080;2023-12-14T08:55:34;28.17;;;15.25;;
39078;SDS011;24829;49.208;12.080;2023-12-14T08:57:59;22.75;;;14.35;;
39078;SDS011;24829;49.208;12.080;2023-12-14T09:00:25;23.55;;;15.15;;
39078;SDS011;24829;49.208;12.080;2023-12-14T09:02:51;22.75;;;14.43;;
39078;SDS011;24829;49.208;12.080;2023-12-14T09:05:18;19.58;;;12.93;;
39078;SDS011;24829;49.208;12.080;2023-12-14T09:07:45;23.20;;;14.50;;
39078;SDS011;24829;49.208;12.080;2023-12-14T09:10:11;21.67;;;15.40;;
39078;SDS011;24829;49.208;12.080;2023-12-14T09:12:37;20.13;;;13.27;;
39078;SDS011;24829;49.208;12.080;2023-12-14T09:15:03;18.85;;;11.57;;
39078;SDS011;24829;49.208;12.080;2023-12-14T09:17:29;22.95;;;11.20;;
39078;SDS011;24829;49.208;12.080;2023-12-14T09:20:00;18.75;;;11.38;;
39078;SDS011;24829;49.208;12.080;2023-12-14T09:22:29;17.58;;;10.90;;
39078;SDS011;24829;49.208;12.080;2023-12-14T09:24:55;21.65;;;10.45;;
39078;SDS011;24829;49.208;12.080;2023-12-14T09:27:21;17.27;;;10.85;;
39078;SDS011;24829;49.208;12.080;2023-12-14T09:29:46;17.95;;;11.13;;
39078;SDS011;24829;49.208;12.080;2023-12-14T09:32:12;24.67;;;13.65;;
39078;SDS011;24829;49.208;12.080;2023-12-14T09:34:38;20.38;;;13.13;;
39078;SDS011;24829;49.208;12.080;2023-12-14T09:37:04;20.17;;;12.45;;
39078;SDS011;24829;49.208;12.080;2023-12-14T09:39:30;19.42;;;11.75;;
39078;SDS011;24829;49.208;12.080;2023-12-14T09:42:05;21.83;;;13.43;;
39078;SDS011;24829;49.208;12.080;2023-12-14T09:44:32;18.90;;;11.88;;
39078;SDS011;24829;49.208;12.080;2023-12-14T09:47:00;22.35;;;12.65;;
39078;SDS011;24829;49.208;12.080;2023-12-14T09:49:27;25.92;;;13.63;;
39078;SDS011;24829;49.208;12.080;2023-12-14T09:51:58;19.92;;;12.65;;
39078;SDS011;24829;49.208;12.080;2023-12-14T09:54:27;19.13;;;12.43;;
39078;SDS011;24829;49.208;12.080;2023-12-14T09:56:53;23.05;;;12.45;;
39078;SDS011;24829;49.208;12.080;2023-12-14T09:59:19;20.23;;;12.73;;
39078;SDS011;24829;49.208;12.080;2023-12-14T10:01:46;18.10;;;11.88;;
39078;SDS011;24829;49.208;12.080;2023-12-14T10:04:12;22.65;;;13.88;;
39078;SDS011;24829;49.208;12.080;2023-12-14T10:06:38;22.65;;;13.60;;
39078;SDS011;24829;49.208;12.080;2023-12-14T10:09:05;23.33;;;15.23;;
39078;SDS011;24829;49.208;12.080;2023-12-14T10:11:49;25.98;;;15.50;;
39078;SDS011;24829;49.208;12.080;2023-12-14T10:14:34;22.88;;;14.07;;
39078;SDS011;24829;49.208;12.080;2023-12-14T10:17:19;22.20;;;13.77;;
39078;SDS011;24829;49.208;12.080;2023-12-14T10:19:46;22.50;;;14.00;;
39078;SDS011;24829;49.208;12.080;2023-12-14T10:22:13;21.38;;;12.68;;
39078;SDS011;24829;49.208;12.080;2023-12-14T10:24:42;18.15;;;12.15;;
39078;SDS011;24829;49.208;12.080;2023-12-14T10:27:09;23.45;;;13.68;;
39078;SDS011;24829;49.208;12.080;2023-12-14T10:29:38;20.48;;;12.07;;
39078;SDS011;24829;49.208;12.080;2023-12-14T10:32:05;21.38;;;13.25;;
39078;SDS011;24829;49.208;12.080;2023-12-14T10:34:33;22.63;;;12.75;;
39078;SDS011;24829;49.208;12.080;2023-12-14T10:37:00;20.98;;;13.00;;
39078;SDS011;24829;49.208;12.080;2023-12-14T10:39:29;19.35;;;12.75;;
39078;SDS011;24829;49.208;12.080;2023-12-14T10:41:55;22.50;;;12.10;;
39078;SDS011;24829;49.208;12.080;2023-12-14T10:44:25;15.73;;;10.90;;
39078;SDS011;24829;49.208;12.080;2023-12-14T10:46:54;17.50;;;11.93;;
39078;SDS011;24829;49.208;12.080;2023-12-14T10:49:26;21.35;;;11.40;;
39078;SDS011;24829;49.208;12.080;2023-12-14T10:51:54;17.38;;;10.18;;
39078;SDS011;24829;49.208;12.080;2023-12-14T10:54:23;14.85;;;10.68;;
39078;SDS011;24829;49.208;12.080;2023-12-14T10:56:49;17.67;;;10.90;;
39078;SDS011;24829;49.208;12.080;2023-12-14T10:59:19;16.77;;;10.75;;
39078;SDS011;24829;49.208;12.080;2023-12-14T11:01:45;19.15;;;10.73;;
39078;SDS011;24829;49.208;12.080;2023-12-14T11:04:23;18.02;;;9.57;;
39078;SDS011;24829;49.208;12.080;2023-12-14T11:06:52;18.08;;;10.40;;
39078;SDS011;24829;49.208;12.080;2023-12-14T11:09:18;18.40;;;10.52;;
39078;SDS011;24829;49.208;12.080;2023-12-14T11:11:54;21.13;;;10.85;;
39078;SDS011;24829;49.208;12.080;2023-12-14T11:14:22;19.52;;;12.18;;
39078;SDS011;24829;49.208;12.080;2023-12-14T11:16:50;16.98;;;10.90;;
39078;SDS011;24829;49.208;12.080;2023-12-14T11:21:48;16.52;;;11.32;;
39078;SDS011;24829;49.208;12.080;2023-12-14T11:24:23;23.10;;;13.57;;
39078;SDS011;24829;49.208;12.080;2023-12-14T11:26:49;22.55;;;14.00;;
39078;SDS011;24829;49.208;12.080;2023-12-14T11:29:15;25.40;;;11.43;;
39078;SDS011;24829;49.208;12.080;2023-12-14T11:31:42;18.23;;;10.90;;
39078;SDS011;24829;49.208;12.080;2023-12-14T11:34:07;14.88;;;9.57;;
39078;SDS011;24829;49.208;12.080;2023-12-14T11:36:33;17.25;;;9.65;;
39078;SDS011;24829;49.208;12.080;2023-12-14T11:38:59;13.77;;;8.90;;
39078;SDS011;24829;49.208;12.080;2023-12-14T11:41:24;16.60;;;10.35;;
39078;SDS011;24829;49.208;12.080;2023-12-14T11:43:50;15.38;;;9.52;;
39078;SDS011;24829;49.208;12.080;2023-12-14T11:46:16;13.13;;;8.75;;
39078;SDS011;24829;49.208;12.080;2023-12-14T11:48:46;16.67;;;9.98;;
39078;SDS011;24829;49.208;12.080;2023-12-14T11:51:14;15.05;;;9.23;;
39078;SDS011;24829;49.208;12.080;2023-12-14T11:53:40;15.23;;;9.05;;
39078;SDS011;24829;49.208;12.080;2023-12-14T11:56:07;14.55;;;9.63;;
39078;SDS011;24829;49.208;12.080;2023-12-14T11:58:34;16.25;;;8.52;;
39078;SDS011;24829;49.208;12.080;2023-12-14T12:01:15;17.50;;;9.50;;
39078;SDS011;24829;49.208;12.080;2023-12-14T12:03:43;12.02;;;8.63;;
39078;SDS011;24829;49.208;12.080;2023-12-14T12:06:26;13.43;;;8.43;;
39078;SDS011;24829;49.208;12.080;2023-12-14T12:08:52;16.48;;;9.52;;
39078;SDS011;24829;49.208;12.080;2023-12-14T12:11:19;19.00;;;9.55;;
39078;SDS011;24829;49.208;12.080;2023-12-14T12:13:52;14.32;;;8.43;;
39078;SDS011;24829;49.208;12.080;2023-12-14T12:16:22;13.52;;;8.10;;
39078;SDS011;24829;49.208;12.080;2023-12-14T12:18:48;13.20;;;8.80;;
39078;SDS011;24829;49.208;12.080;2023-12-14T12:21:15;15.55;;;8.02;;
39078;SDS011;24829;49.208;12.080;2023-12-14T12:23:41;10.18;;;7.53;;
39078;SDS011;24829;49.208;12.080;2023-12-14T12:26:07;14.18;;;8.57;;
39078;SDS011;24829;49.208;12.080;2023-12-14T12:28:33;14.15;;;7.93;;
39078;SDS011;24829;49.208;12.080;2023-12-14T12:30:59;10.55;;;6.30;;
39078;SDS011;24829;49.208;12.080;2023-12-14T12:33:25;12.65;;;7.40;;
39078;SDS011;24829;49.208;12.080;2023-12-14T12:35:51;13.80;;;8.20;;
39078;SDS011;24829;49.208;12.080;2023-12-14T12:38:17;16.33;;;8.43;;
39078;SDS011;24829;49.208;12.080;2023-12-14T12:40:44;13.85;;;7.90;;
39078;SDS011;24829;49.208;12.080;2023-12-14T12:43:09;14.52;;;7.47;;
39078;SDS011;24829;49.208;12.080;2023-12-14T12:45:36;15.57;;;9.20;;
39078;SDS011;24829;49.208;12.080;2023-12-14T12:48:02;12.07;;;7.50;;
39078;SDS011;24829;49.208;12.080;2023-12-14T12:50:29;14.40;;;7.32;;
39078;SDS011;24829;49.208;12.080;2023-12-14T12:52:55;12.02;;;8.35;;
39078;SDS011;24829;49.208;12.080;2023-12-14T12:55:21;15.05;;;8.07;;
39078;SDS011;24829;49.208;12.080;2023-12-14T12:57:47;13.40;;;8.70;;
39078;SDS011;24829;49.208;12.080;2023-12-14T13:00:13;17.80;;;9.32;;
39078;SDS011;24829;49.208;12.080;2023-12-14T13:02:40;12.95;;;7.93;;
39078;SDS011;24829;49.208;12.080;2023-12-14T13:05:07;18.77;;;10.20;;
39078;SDS011;24829;49.208;12.080;2023-12-14T13:07:34;14.07;;;8.88;;
39078;SDS011;24829;49.208;12.080;2023-12-14T13:10:01;13.13;;;9.45;;
39078;SDS011;24829;49.208;12.080;2023-12-14T13:12:28;16.00;;;9.45;;
39078;SDS011;24829;49.208;12.080;2023-12-14T13:14:54;14.85;;;8.48;;
39078;SDS011;24829;49.208;12.080;2023-12-14T13:17:19;18.23;;;8.93;;
39078;SDS011;24829;49.208;12.080;2023-12-14T13:19:45;14.30;;;8.88;;
39078;SDS011;24829;49.208;12.080;2023-12-14T13:22:11;17.77;;;10.25;;
39078;SDS011;24829;49.208;12.080;2023-12-14T13:24:37;13.60;;;9.40;;
39078;SDS011;24829;49.208;12.080;2023-12-14T13:27:03;14.25;;;9.20;;
39078;SDS011;24829;49.208;12.080;2023-12-14T13:29:29;13.77;;;10.10;;
39078;SDS011;24829;49.208;12.080;2023-12-14T13:31:59;16.80;;;8.70;;
39078;SDS011;24829;49.208;12.080;2023-12-14T13:34:25;14.27;;;9.35;;
39078;SDS011;24829;49.208;12.080;2023-12-14T13:36:51;15.93;;;9.55;;
39078;SDS011;24829;49.208;12.080;2023-12-14T13:39:17;17.10;;;9.82;;
39078;SDS011;24829;49.208;12.080;2023-12-14T13:41:42;20.15;;;10.20;;
39078;SDS011;24829;49.208;12.080;2023-12-14T13:44:08;17.33;;;10.10;;
39078;SDS011;24829;49.208;12.080;2023-12-14T13:46:34;14.88;;;10.52;;
39078;SDS011;24829;49.208;12.080;2023-12-14T13:49:00;18.63;;;9.10;;
39078;SDS011;24829;49.208;12.080;2023-12-14T13:51:27;18.23;;;10.68;;
39078;SDS011;24829;49.208;12.080;2023-12-14T13:53:53;14.85;;;10.43;;
39078;SDS011;24829;49.208;12.080;2023-12-14T13:56:18;19.98;;;10.32;;
39078;SDS011;24829;49.208;12.080;2023-12-14T13:58:44;16.77;;;9.60;;
39078;SDS011;24829;49.208;12.080;2023-12-14T14:01:09;14.10;;;9.98;;
39078;SDS011;24829;49.208;12.080;2023-12-14T14:03:35;17.48;;;9.52;;
39078;SDS011;24829;49.208;12.080;2023-12-14T14:06:02;20.75;;;10.93;;
39078;SDS011;24829;49.208;12.080;2023-12-14T14:08:28;13.73;;;9.88;;
39078;SDS011;24829;49.208;12.080;2023-12-14T14:10:56;18.92;;;9.85;;
39078;SDS011;24829;49.208;12.080;2023-12-14T14:13:23;13.13;;;9.27;;
39078;SDS011;24829;49.208;12.080;2023-12-14T14:15:48;15.88;;;9.35;;